• Join FlightAware (Why Join?)
  • Login
  • US Flag 
09:18PM EDT


 

Airport Tracker/Info


-or-


 

Live Flight TrackerFlight Track Log ✈ QXE2185 ✈ 08-May-2013 ✈ KPDX - KSJC

Flight Track Log - Related Links

Times and Time Zones

All times are in EDT time to prevent confusion due to time zone crossing. See the QXE2185 flight status page for this flight to view local times or setup timezone preferences in your user account.

Time Position Orientation Groundspeed Altitude Reporting Facility
EDT Latitude Longitude Course Direction KTS MPH feet Rate Location/Type
01:12PM 41.9422 -123.3283 178° South 345 397 25,000  Level Oakland Center
01:12PM 41.8775 -123.3247 178° South 342 394 25,000  Level Seattle Center
01:13PM 41.7822 -123.3231 179° South 342 394 25,000  Level Seattle Center
01:15PM 41.6864 -123.3208 179° South 344 396 25,000  Level Seattle Center
01:16PM 41.5939 -123.3194 179° South 336 387 25,000  Level Seattle Center
01:16PM 41.5617 -123.3156 175° South 341 392 25,000  Level Oakland Center
01:17PM 41.4681 -123.3017 174° South 340 391 25,000  Level Oakland Center
01:18PM 41.3744 -123.2892 174° South 340 391 25,000  Level Oakland Center
01:19PM 41.2997 -123.2789 174° South 337 388 25,000  Level Seattle Center
01:20PM 41.2056 -123.2667 174° South 339 390 25,000  Level Seattle Center
01:21PM 41.1136 -123.2550 175° South 335 386 25,000  Level Seattle Center
01:22PM 41.0206 -123.2422 174° South 335 386 25,000  Level Seattle Center
01:23PM 40.9278 -123.2306 175° South 335 386 25,000  Level Seattle Center
01:24PM 40.8350 -123.2189 175° South 335 386 25,000  Level Seattle Center
01:24PM 40.7914 -123.2125 174° South 335 386 25,000  Level Oakland Center
01:25PM 40.6986 -123.1997 174° South 335 386 25,000  Level Oakland Center
01:26PM 40.6067 -123.1878 174° South 333 383 25,000  Level Oakland Center
01:27PM 40.5133 -123.1764 175° South 337 388 25,000  Level Oakland Center
01:28PM 40.4200 -123.1644 174° South 337 388 25,000  Level Oakland Center
01:29PM 40.3281 -123.1533 175° South 333 383 25,000  Level Oakland Center
01:30PM 40.2356 -123.1403 174° South 335 386 25,000  Level Oakland Center
01:31PM 40.1436 -123.1283 174° South 334 384 25,000  Level Oakland Center
01:32PM 40.0328 -123.1142 174° South 335 386 25,000  Level Oakland Center
01:33PM 39.9411 -123.1031 175° South 332 382 25,000  Level Oakland Center
01:34PM 39.8494 -123.0911 174° South 334 384 25,000  Level Oakland Center
01:35PM 39.7583 -123.0797 175° South 332 382 25,000  Level Oakland Center
01:36PM 39.6664 -123.0669 174° South 334 384 25,000  Level Oakland Center
01:37PM 39.5744 -123.0561 175° South 334 384 25,000  Level Oakland Center
01:38PM 39.4828 -123.0436 174° South 334 384 25,000  Level Oakland Center
01:39PM 39.3858 -123.0303 174° South 332 382 25,000  Level Oakland Center
01:40PM 39.2933 -123.0183 174° South 334 384 25,000 -540 Level Oakland Center
01:41PM 39.1986 -123.0069 175° South 341 392 23,900 -1,140 Descending Oakland Center
01:42PM 39.0989 -122.9928 174° South 357 411 22,700 -1,320 Descending Oakland Center
01:43PM 38.9742 -122.9797 175° South 371 427 21,300 -1,320 Descending Oakland Center
01:44PM 38.8711 -122.9642 173° South 373 429 20,100 -1,200 Descending Oakland Center
01:45PM 38.7669 -122.9528 175° South 374 430 18,900 -1,080 Descending Oakland Center
01:46PM 38.6625 -122.9417 175° South 378 435 18,000 -480 Descending Oakland Center
01:48PM 38.5586 -122.9272 174° South 377 434 18,000  Level Oakland Center
01:49PM 38.4564 -122.9147 175° South 371 427 18,000 -180 Level Oakland Center
01:50PM 38.3550 -122.9028 175° South 368 423 17,700 -780 Descending Oakland Center
01:51PM 38.2531 -122.8897 174° South 369 425 16,500 -1,320 Descending Oakland Center
01:52PM 38.1336 -122.8753 175° South 362 417 15,100 -1,320 Descending Oakland Center
01:53PM 38.0431 -122.8467 166° South 341 392 13,800 -1,260 Descending Oakland Center
01:54PM 37.9725 -122.7714 140° Southeast 333 383 12,600 -900 Descending Oakland Center
01:55PM 37.9050 -122.6944 138° Southeast 331 381 12,000 -300 Descending Oakland Center
01:56PM 37.8386 -122.6206 139° Southeast 330 380 12,000  Level Oakland Center
01:56PM 37.8000 -122.5833 143° Southeast 324 373 12,000  Level Northern Cal TRACON
01:57PM 37.7333 -122.5000 135° Southeast 324 373 12,000  Level Northern Cal TRACON
01:58PM 37.6667 -122.4333 142° Southeast 324 373 12,000  Level Northern Cal TRACON
01:59PM 37.6247 -122.3803 135° Southeast 323 372 12,000 -60 Level Oakland Center
02:00PM 37.5461 -122.3300 153° Southeast 322 371 11,900 -840 Descending Oakland Center
02:01PM 37.4622 -122.2892 159° South 322 371 10,300 -1,620 Descending Oakland Center
02:02PM 37.3897 -122.2458 155° Southeast 291 335 8,600 -1,620 Descending Oakland Center
02:03PM 37.3325 -122.1867 141° Southeast 276 318 7,100 -1,080 Descending Oakland Center
02:04PM 37.2922 -122.1167 126° Southeast 250 288 6,500 -540 Descending Oakland Center
02:05PM 37.2522 -122.0350 122° Southeast 218 251 6,000 -300 Descending Oakland Center
02:06PM 37.2350 -121.9614 106° East 219 252 5,900 -540 Descending Oakland Center
02:07PM 37.2178 -121.8900 107° East 215 247 5,000 -1,260 Descending Oakland Center
02:08PM 37.2439 -121.8297 61° Northeast 220 253 3,400 -1,620 Descending Oakland Center
02:09PM 37.2917 -121.8494 342° North 202 232 1,700 -1,260 Descending Oakland Center
02:10PM 37.3236 -121.8867 317° Northwest 176 203 900 -780 Descending Oakland Center
02:11PM 37.3492 -121.9150 319° Northwest 146 168 200 -720 Descending Oakland Center